createdAt,value
2022-12-20T00:00:53.741Z,22.80
2022-12-20T00:05:56.627Z,22.80
2022-12-20T00:11:02.172Z,22.70
2022-12-20T00:16:07.033Z,22.60
2022-12-20T00:21:11.375Z,22.50
2022-12-20T00:26:16.932Z,22.40
2022-12-20T00:31:21.099Z,22.40
2022-12-20T00:36:27.185Z,22.40
2022-12-20T00:41:33.314Z,22.40
2022-12-20T00:46:36.576Z,22.40
2022-12-20T00:51:39.504Z,22.30
2022-12-20T00:56:43.722Z,22.30
2022-12-20T01:01:47.931Z,22.20
2022-12-20T01:06:50.905Z,22.20
2022-12-20T01:11:55.082Z,22.10
2022-12-20T01:16:58.025Z,22.00
2022-12-20T01:22:00.940Z,22.00
2022-12-20T01:27:05.142Z,22.00
2022-12-20T01:32:08.074Z,22.00
2022-12-20T01:37:11.086Z,22.00
2022-12-20T01:42:16.852Z,21.90
2022-12-20T01:47:19.838Z,21.90
2022-12-20T01:52:27.545Z,21.80
2022-12-20T01:57:37.142Z,21.80
2022-12-20T02:02:40.923Z,21.70
2022-12-20T02:07:46.664Z,21.70
2022-12-20T02:12:56.191Z,21.70
2022-12-20T02:18:10.448Z,21.70
2022-12-20T02:23:42.929Z,21.70
2022-12-20T02:29:03.746Z,21.70
2022-12-20T02:34:10.449Z,21.60
2022-12-20T02:39:15.121Z,21.60
2022-12-20T02:44:39.630Z,21.50
2022-12-20T02:49:45.685Z,21.50
2022-12-20T02:54:48.837Z,21.40
2022-12-20T02:59:57.661Z,21.50
2022-12-20T03:05:02.952Z,21.50
2022-12-20T03:10:06.346Z,21.50
2022-12-20T03:15:09.713Z,21.50
2022-12-20T03:20:14.036Z,21.50
2022-12-20T03:25:17.157Z,21.40
2022-12-20T03:30:20.506Z,21.40
2022-12-20T03:35:24.710Z,21.30
2022-12-20T03:40:27.545Z,21.30
2022-12-20T03:45:30.609Z,21.40
2022-12-20T03:50:36.658Z,21.40
2022-12-20T03:55:40.823Z,21.40
2022-12-20T04:00:47.560Z,21.40
2022-12-20T04:05:51.940Z,21.40
2022-12-20T04:11:12.076Z,21.30
2022-12-20T04:16:15.826Z,21.30
2022-12-20T04:21:24.669Z,21.20
2022-12-20T04:26:27.850Z,21.20
2022-12-20T04:31:30.725Z,21.30
2022-12-20T04:36:34.994Z,21.30
2022-12-20T04:41:37.902Z,21.30
2022-12-20T04:46:40.784Z,21.30
2022-12-20T04:51:45.031Z,21.20
2022-12-20T04:56:47.897Z,21.20
2022-12-20T05:01:50.876Z,21.20
2022-12-20T05:06:55.092Z,21.10
2022-12-20T05:11:57.933Z,21.10
2022-12-20T05:17:00.762Z,21.00
2022-12-20T05:22:22.315Z,21.00
2022-12-20T05:27:25.114Z,21.10
2022-12-20T05:32:28.010Z,21.20
2022-12-20T05:37:32.299Z,21.20
2022-12-20T05:42:35.293Z,21.20
2022-12-20T05:47:38.985Z,21.30
2022-12-20T05:52:43.247Z,21.20
2022-12-20T05:57:46.116Z,21.20
2022-12-20T06:02:49.128Z,21.20
2022-12-20T06:07:53.425Z,21.10
2022-12-20T06:12:56.236Z,21.00
2022-12-20T06:17:59.131Z,21.00
2022-12-20T06:23:03.675Z,21.10
2022-12-20T06:28:07.589Z,21.10
2022-12-20T06:33:10.375Z,21.20
2022-12-20T06:38:14.547Z,21.20
2022-12-20T06:43:17.577Z,21.20
2022-12-20T06:48:21.293Z,21.10
2022-12-20T06:53:25.502Z,21.00
2022-12-20T06:58:28.347Z,21.00
2022-12-20T07:03:31.252Z,21.00
2022-12-20T07:08:35.539Z,21.20
2022-12-20T07:13:38.329Z,21.30
2022-12-20T07:18:41.197Z,21.40
2022-12-20T07:23:45.354Z,21.40
2022-12-20T07:28:48.192Z,21.50
2022-12-20T07:33:51.028Z,21.60
2022-12-20T07:38:55.215Z,21.60
2022-12-20T07:43:58.863Z,21.60
2022-12-20T07:49:01.768Z,21.60
2022-12-20T07:54:10.703Z,21.60
2022-12-20T07:59:15.148Z,21.70
2022-12-20T08:04:21.734Z,21.80
2022-12-20T08:09:27.820Z,21.90
2022-12-20T08:14:30.835Z,22.00
2022-12-20T08:19:33.710Z,22.10
2022-12-20T08:24:37.869Z,22.10
2022-12-20T08:29:40.692Z,22.10
2022-12-20T08:34:43.600Z,22.10
2022-12-20T08:39:47.843Z,22.00
2022-12-20T08:44:50.748Z,22.10
2022-12-20T08:49:53.583Z,22.20
2022-12-20T08:54:58.442Z,22.30
2022-12-20T09:00:01.602Z,22.30
2022-12-20T09:05:04.972Z,22.30
2022-12-20T09:10:10.884Z,22.40
2022-12-20T09:15:13.669Z,22.30
2022-12-20T09:20:16.656Z,22.30
2022-12-20T09:25:20.802Z,22.30
2022-12-20T09:30:23.845Z,22.30
2022-12-20T09:35:26.791Z,22.40
2022-12-20T09:40:33.464Z,22.50
2022-12-20T09:45:38.734Z,22.50
2022-12-20T09:50:52.184Z,22.60
2022-12-20T09:56:01.857Z,22.60
2022-12-20T10:01:21.453Z,22.50
2022-12-20T10:06:41.342Z,22.50
2022-12-20T10:11:58.183Z,22.40
2022-12-20T10:17:05.895Z,22.50
2022-12-20T10:22:15.225Z,22.60
2022-12-20T10:27:21.462Z,22.60
2022-12-20T10:32:27.476Z,22.60
2022-12-20T10:37:31.265Z,22.60
2022-12-20T10:42:39.447Z,22.60
2022-12-20T10:47:45.856Z,22.60
2022-12-20T10:53:24.670Z,22.50
2022-12-20T10:58:36.946Z,22.40
2022-12-20T11:03:55.464Z,22.40
2022-12-20T11:09:24.872Z,22.40
2022-12-20T11:14:36.542Z,22.50
2022-12-20T11:20:02.151Z,22.60
2022-12-20T11:25:20.991Z,22.60
2022-12-20T11:30:27.958Z,22.50
2022-12-20T11:35:41.038Z,22.50
2022-12-20T11:40:51.816Z,22.50
2022-12-20T11:46:09.280Z,22.50
2022-12-20T11:51:26.427Z,22.40
2022-12-20T11:56:40.129Z,22.50
2022-12-20T12:01:56.473Z,22.60
2022-12-20T12:07:03.044Z,22.70
2022-12-20T12:12:11.399Z,22.70
2022-12-20T12:17:22.253Z,22.60
2022-12-20T12:22:34.007Z,22.50
2022-12-20T12:27:36.878Z,22.40
2022-12-20T12:32:45.973Z,22.40
2022-12-20T12:38:04.610Z,22.30
2022-12-20T12:43:38.648Z,22.30
2022-12-20T12:48:46.919Z,22.40
2022-12-20T12:53:52.144Z,22.50
2022-12-20T12:59:24.529Z,22.60
2022-12-20T13:04:30.694Z,22.70
2022-12-20T13:09:51.309Z,22.80
2022-12-20T13:14:54.195Z,22.80
2022-12-20T13:19:58.550Z,22.70
2022-12-20T13:25:03.818Z,22.70
2022-12-20T13:30:25.811Z,22.70
2022-12-20T13:35:48.331Z,22.70
2022-12-20T13:40:58.650Z,22.80
2022-12-20T13:46:14.234Z,22.80
2022-12-20T13:51:21.455Z,22.60
2022-12-20T13:56:38.771Z,21.90
2022-12-20T14:01:49.250Z,22.00
2022-12-20T14:06:58.340Z,22.20
2022-12-20T14:12:06.789Z,22.40
2022-12-20T14:17:18.042Z,22.50
2022-12-20T14:22:22.359Z,22.50
2022-12-20T14:27:36.589Z,22.50
2022-12-20T14:32:39.436Z,22.60
2022-12-20T14:37:54.884Z,22.70
2022-12-20T14:42:58.072Z,22.80
2022-12-20T14:48:04.431Z,22.80
2022-12-20T14:53:20.028Z,22.90
2022-12-20T14:58:26.157Z,23.00
2022-12-20T15:03:29.795Z,23.00
2022-12-20T15:08:34.956Z,23.00
2022-12-20T15:13:39.904Z,23.00
2022-12-20T15:18:42.803Z,23.00
2022-12-20T15:23:49.390Z,23.10
2022-12-20T15:28:52.491Z,23.10
2022-12-20T15:33:58.029Z,23.10
2022-12-20T15:39:17.632Z,23.20
2022-12-20T15:44:23.517Z,23.20
2022-12-20T15:49:30.156Z,23.10
2022-12-20T15:54:36.338Z,23.10
2022-12-20T16:05:02.524Z,23.20
2022-12-20T16:10:08.340Z,23.20
2022-12-20T16:15:23.210Z,23.30
2022-12-20T16:20:27.495Z,23.30
2022-12-20T16:25:33.937Z,23.30
2022-12-20T16:30:36.785Z,23.30
2022-12-20T16:35:39.651Z,23.40
2022-12-20T16:40:43.981Z,23.40
2022-12-20T16:45:46.808Z,23.30
2022-12-20T16:50:49.644Z,23.30
2022-12-20T16:55:53.786Z,23.30
2022-12-20T17:00:56.645Z,23.40
2022-12-20T17:05:59.505Z,23.40
2022-12-20T17:11:04.131Z,23.40
2022-12-20T17:16:07.515Z,23.30
2022-12-20T17:21:22.720Z,23.30
2022-12-20T17:26:28.616Z,23.20
2022-12-20T17:31:34.359Z,23.20
2022-12-20T17:36:38.266Z,23.20
2022-12-20T17:41:43.708Z,23.10
2022-12-20T17:46:46.584Z,23.10
2022-12-20T17:51:51.359Z,23.10
2022-12-20T17:56:57.121Z,23.10
2022-12-20T18:02:00.201Z,23.30
2022-12-20T18:07:04.791Z,23.50
2022-12-20T18:12:10.872Z,23.80
2022-12-20T18:17:13.809Z,24.00
2022-12-20T18:22:16.952Z,24.30
2022-12-20T18:27:26.917Z,24.50
2022-12-20T18:32:33.049Z,24.80
2022-12-20T18:37:35.869Z,25.00
2022-12-20T18:42:40.056Z,25.20
2022-12-20T18:47:42.918Z,25.30
2022-12-20T18:52:47.096Z,25.40
2022-12-20T18:57:51.583Z,25.50
2022-12-20T19:02:58.859Z,25.60
2022-12-20T19:08:01.879Z,25.80
2022-12-20T19:13:06.365Z,25.90
2022-12-20T19:18:09.294Z,26.00
2022-12-20T19:23:12.235Z,26.20
2022-12-20T19:28:16.401Z,26.30
2022-12-20T19:33:19.605Z,26.40
2022-12-20T19:38:22.522Z,26.60
2022-12-20T19:43:27.105Z,26.70
2022-12-20T19:48:30.336Z,26.90
2022-12-20T19:53:33.273Z,27.00
2022-12-20T19:58:38.130Z,27.00
2022-12-20T20:03:41.112Z,27.00
2022-12-20T20:08:44.752Z,27.00
2022-12-20T20:13:48.991Z,27.00
2022-12-20T20:18:52.195Z,27.00
2022-12-20T20:23:55.893Z,27.00
2022-12-20T20:29:01.617Z,26.90
2022-12-20T20:34:05.129Z,26.80
2022-12-20T20:39:07.976Z,26.70
2022-12-20T20:44:13.230Z,26.70
2022-12-20T20:49:16.188Z,26.60
2022-12-20T20:54:19.069Z,26.50
2022-12-20T20:59:23.249Z,26.40
2022-12-20T21:04:26.043Z,26.30
2022-12-20T21:09:28.902Z,26.10
2022-12-20T21:15:10.616Z,26.00
2022-12-20T21:19:55.856Z,25.80
2022-12-20T21:24:59.494Z,25.70
2022-12-20T21:30:04.462Z,25.60
2022-12-20T21:35:07.945Z,25.60
2022-12-20T21:40:11.978Z,25.40
2022-12-20T21:45:16.301Z,25.40
2022-12-20T21:50:19.419Z,25.20
2022-12-20T21:55:22.302Z,25.20
2022-12-20T22:00:26.554Z,25.10
2022-12-20T22:05:29.400Z,25.00
2022-12-20T22:10:32.311Z,24.90
2022-12-20T22:15:37.589Z,24.80
2022-12-20T22:20:40.435Z,24.70
2022-12-20T22:25:43.352Z,24.60
2022-12-20T22:30:47.562Z,24.50
2022-12-20T22:35:50.449Z,24.40
2022-12-20T22:40:58.548Z,24.40
2022-12-20T22:46:02.746Z,24.40
2022-12-20T22:51:07.778Z,24.30
2022-12-20T22:56:11.620Z,24.20
2022-12-20T23:01:17.975Z,24.20
2022-12-20T23:06:22.384Z,24.10
2022-12-20T23:11:44.679Z,24.10
2022-12-20T23:16:48.915Z,24.00
2022-12-20T23:22:09.337Z,23.90
2022-12-20T23:27:12.159Z,23.80
2022-12-20T23:32:16.385Z,23.80
2022-12-20T23:37:19.561Z,23.70
2022-12-20T23:42:22.488Z,23.60
2022-12-20T23:47:26.671Z,23.60
2022-12-20T23:52:29.580Z,23.50
2022-12-20T23:57:32.580Z,23.50
